Aeroporto :
LOGIN :

Iscrizione | Disclaimer

   EN    FR    IT 

 










Sommario :    VFR   VFR Marginale   IFR   IFR Intensivo   IFR Molto Intensivo
Visibilità : 
Base nubi : 
>= 8 km
>= 3000ft
5 / 8 km
1000 / 3000 ft
1500m / 5 km
500 / 1000 ft
800 / 1500m
200 / 500 ft
< 800m
< 200 ft
Simboli :   Temporali  Nebbia  Neve Forte  Precipitazioni Forti  Vento > 20 kt
SIGMETs :   Varie  Temporali  Ghiacco  Turbolenza  Onda orograficha  Ceneri Vulcaniche






- Altitudine del aeroporto : 226 ft
- Codice IATA : BEX


EGUB - RAF Benson

ULTIMO METAR :
  • 211250Z 08010KT 7000 HZ OVC007 04/03 Q1001 NOSIG RMK GRN GRN

METARs OBSOLETI :
  • 211235Z 09010KT 6000 HZ OVC007 04/03 Q1002 NOSIG RMK GRN GRN
  • 211150Z 10009KT 7000 HZ OVC008 04/02 Q1002 NOSIG RMK GRN GRN
  • 211123Z 12008KT 9999 OVC009 04/02 Q1003 NOSIG RMK GRN GRN
  • 211050Z 10010KT 9999 BKN008 BKN025 04/02 Q1003 NOSIG RMK GRN GRN
  • 211021Z 08008KT 9999 OVC009 04/02 Q1003 NOSIG RMK GRN GRN

TAF AMD TAF EGUB
Valido dal 21 a 12 ore il 21 a 21 ore UTC


211215Z 2112/2121 09009KT 5000 HZ BKN008
PROB30
TEMPO 2112/2118 4000 BR BKN005
TEMPO 2118/2121 3000 -RADZ BKN005
ATIS : +44 1491-837766 (x7524)



MetMap, La meteo Aeronautica in un colpo d'occhio ! - Copyright ORBIFLY Dicembre 2007 - Disclaimer

ORBIFLY MET'MAP TEAM :

Programmazione e sviluppo : Alexandra Zaïnal
Concezione e sviluppo : Baudouin d'Aumeries
Co-Programmazione e sviluppo : Marc-Olivier Méhu
Supporto tecnico e logistico : Manuel Goepfert
Aiuto per la traduzione : Arnaldo La Scala

Contatto : metmap@orbifly.com




FONTI E CREDITI :

   NOAA